createdAt,value
2018-06-28T00:00:16.677Z,11.81
2018-06-28T00:01:16.725Z,11.78
2018-06-28T00:02:16.987Z,11.78
2018-06-28T00:03:16.247Z,11.78
2018-06-28T00:04:16.537Z,11.80
2018-06-28T00:05:16.814Z,11.78
2018-06-28T00:06:17.094Z,11.80
2018-06-28T00:07:16.371Z,11.81
2018-06-28T00:08:16.635Z,11.78
2018-06-28T00:09:16.897Z,11.78
2018-06-28T00:10:17.164Z,11.84
2018-06-28T00:11:17.207Z,11.84
2018-06-28T00:12:16.469Z,11.81
2018-06-28T00:13:16.746Z,11.84
2018-06-28T00:14:17.007Z,11.84
2018-06-28T00:15:16.286Z,11.84
2018-06-28T00:16:16.544Z,11.82
2018-06-28T00:17:16.813Z,11.81
2018-06-28T00:18:17.076Z,11.77
2018-06-28T00:19:16.341Z,11.81
2018-06-28T00:20:16.607Z,11.86
2018-06-28T00:21:16.671Z,11.85
2018-06-28T00:22:16.936Z,11.89
2018-06-28T00:23:17.201Z,11.85
2018-06-28T00:24:16.465Z,11.85
2018-06-28T00:25:16.729Z,11.86
2018-06-28T00:26:17.002Z,11.92
2018-06-28T00:27:16.502Z,12.01
2018-06-28T00:28:16.776Z,12.03
2018-06-28T00:29:17.033Z,12.03
2018-06-28T00:30:16.319Z,12.06
2018-06-28T00:31:16.380Z,12.13
2018-06-28T00:32:16.641Z,12.18
2018-06-28T00:33:16.905Z,12.20
2018-06-28T00:34:17.180Z,12.23
2018-06-28T00:35:16.446Z,12.25
2018-06-28T00:36:16.714Z,12.23
2018-06-28T00:37:17.004Z,12.16
2018-06-28T00:38:16.268Z,12.16
2018-06-28T00:39:16.535Z,12.16
2018-06-28T00:40:16.819Z,12.18
2018-06-28T00:41:16.855Z,12.18
2018-06-28T00:42:17.110Z,12.19
2018-06-28T00:43:16.365Z,12.20
2018-06-28T00:44:16.627Z,12.19
2018-06-28T00:45:16.893Z,12.20
2018-06-28T00:46:17.433Z,12.16
2018-06-28T00:47:16.702Z,12.16
2018-06-28T00:48:16.969Z,12.18
2018-06-28T00:49:16.234Z,12.22
2018-06-28T00:50:16.502Z,12.22
2018-06-28T00:51:16.554Z,12.23
2018-06-28T00:52:16.815Z,12.20
2018-06-28T00:53:17.098Z,12.20
2018-06-28T00:54:16.378Z,12.22
2018-06-28T00:55:16.638Z,12.22
2018-06-28T00:56:16.904Z,12.26
2018-06-28T00:57:17.458Z,12.29
2018-06-28T00:58:16.721Z,12.29
2018-06-28T00:59:16.978Z,12.26
2018-06-28T01:00:16.259Z,12.26
2018-06-28T01:01:16.302Z,12.33
2018-06-28T01:02:16.571Z,12.33
2018-06-28T01:03:16.851Z,12.33
2018-06-28T01:04:17.109Z,12.32
2018-06-28T01:05:16.365Z,12.26
2018-06-28T01:06:16.628Z,12.23
2018-06-28T01:07:16.895Z,12.22
2018-06-28T01:08:17.165Z,12.13
2018-06-28T01:09:16.763Z,12.13
2018-06-28T01:10:17.039Z,12.09
2018-06-28T01:11:17.085Z,12.08
2018-06-28T01:12:16.355Z,12.11
2018-06-28T01:13:16.628Z,12.06
2018-06-28T01:14:16.889Z,12.05
2018-06-28T01:15:17.164Z,12.05
2018-06-28T01:16:16.432Z,12.03
2018-06-28T01:17:16.701Z,12.03
2018-06-28T01:18:16.964Z,11.98
2018-06-28T01:19:16.228Z,11.96
2018-06-28T01:20:16.508Z,11.93
2018-06-28T01:21:16.546Z,11.88
2018-06-28T01:22:16.806Z,11.85
2018-06-28T01:23:17.061Z,11.85
2018-06-28T01:24:16.323Z,11.82
2018-06-28T01:25:17.667Z,11.80
2018-06-28T01:26:16.930Z,11.77
2018-06-28T01:27:17.182Z,11.75
2018-06-28T01:28:16.440Z,11.71
2018-06-28T01:29:16.714Z,11.70
2018-06-28T01:30:16.981Z,11.70
2018-06-28T01:31:17.029Z,11.67
2018-06-28T01:32:16.299Z,11.63
2018-06-28T01:33:16.562Z,11.60
2018-06-28T01:34:16.820Z,11.61
2018-06-28T01:35:17.084Z,11.54
2018-06-28T01:36:16.344Z,11.53
2018-06-28T01:37:16.616Z,11.54
2018-06-28T01:38:16.883Z,11.50
2018-06-28T01:39:17.142Z,11.53
2018-06-28T01:40:16.410Z,11.53
2018-06-28T01:41:16.477Z,11.49
2018-06-28T01:42:16.743Z,11.46
2018-06-28T01:43:17.001Z,11.47
2018-06-28T01:44:16.268Z,11.46
2018-06-28T01:45:16.535Z,11.49
2018-06-28T01:46:16.795Z,11.49
2018-06-28T01:47:17.062Z,11.46
2018-06-28T01:48:16.325Z,11.54
2018-06-28T01:49:16.598Z,11.54
2018-06-28T01:50:16.863Z,11.51
2018-06-28T01:51:16.906Z,11.50
2018-06-28T01:52:17.177Z,11.42
2018-06-28T01:53:16.438Z,11.39
2018-06-28T01:54:16.696Z,11.37
2018-06-28T01:55:16.954Z,11.39
2018-06-28T01:56:16.221Z,11.42
2018-06-28T01:57:16.509Z,11.40
2018-06-28T01:58:16.782Z,11.39
2018-06-28T01:59:17.048Z,11.42
2018-06-28T02:00:16.338Z,11.43
2018-06-28T02:01:16.385Z,11.42
2018-06-28T02:02:16.654Z,11.46
2018-06-28T02:03:16.915Z,11.46
2018-06-28T02:04:17.176Z,11.47
2018-06-28T02:05:16.434Z,11.47
2018-06-28T02:06:16.697Z,11.43
2018-06-28T02:07:16.964Z,11.46
2018-06-28T02:08:16.218Z,11.44
2018-06-28T02:09:16.492Z,11.50
2018-06-28T02:10:16.756Z,11.49
2018-06-28T02:11:16.808Z,11.51
2018-06-28T02:12:17.341Z,11.58
2018-06-28T02:13:16.609Z,11.61
2018-06-28T02:14:16.878Z,11.61
2018-06-28T02:15:17.146Z,11.61
2018-06-28T02:16:16.414Z,11.61
2018-06-28T02:17:16.687Z,11.60
2018-06-28T02:18:16.960Z,11.60
2018-06-28T02:19:16.229Z,11.53
2018-06-28T02:20:16.496Z,11.53
2018-06-28T02:21:16.567Z,11.46
2018-06-28T02:22:16.839Z,11.44
2018-06-28T02:23:17.104Z,11.42
2018-06-28T02:24:16.372Z,11.43
2018-06-28T02:25:16.635Z,11.40
2018-06-28T02:26:16.892Z,11.39
2018-06-28T02:27:17.155Z,11.40
2018-06-28T02:28:16.813Z,11.42
2018-06-28T02:29:17.084Z,11.42
2018-06-28T02:30:16.364Z,11.43
2018-06-28T02:31:16.421Z,11.42
2018-06-28T02:32:16.687Z,11.34
2018-06-28T02:33:16.951Z,11.34
2018-06-28T02:34:16.450Z,11.33
2018-06-28T02:35:16.727Z,11.33
2018-06-28T02:36:16.992Z,11.30
2018-06-28T02:37:16.261Z,11.30
2018-06-28T02:38:16.522Z,11.33
2018-06-28T02:39:17.059Z,11.37
2018-06-28T02:40:16.338Z,11.44
2018-06-28T02:41:16.386Z,11.49
2018-06-28T02:42:16.653Z,11.60
2018-06-28T02:43:16.932Z,11.65
2018-06-28T02:44:17.207Z,11.65
2018-06-28T02:45:16.509Z,11.67
2018-06-28T02:46:16.769Z,11.63
2018-06-28T02:47:17.047Z,11.57
2018-06-28T02:48:16.369Z,11.49
2018-06-28T02:49:16.620Z,11.50
2018-06-28T02:50:16.895Z,11.46
2018-06-28T02:51:16.951Z,11.46
2018-06-28T02:52:16.217Z,11.49
2018-06-28T02:53:16.509Z,11.49
2018-06-28T02:54:16.781Z,11.49
2018-06-28T02:55:17.366Z,11.51
2018-06-28T02:56:16.681Z,11.49
2018-06-28T02:57:16.946Z,11.47
2018-06-28T02:58:16.225Z,11.55
2018-06-28T02:59:16.500Z,11.57
2018-06-28T03:00:16.805Z,11.68
2018-06-28T03:01:16.821Z,11.71
2018-06-28T03:02:17.085Z,11.71
2018-06-28T03:03:16.347Z,11.70
2018-06-28T03:04:16.610Z,11.67
2018-06-28T03:05:16.880Z,11.67
2018-06-28T03:06:17.143Z,11.61
2018-06-28T03:07:16.403Z,11.60
2018-06-28T03:08:16.667Z,11.58
2018-06-28T03:09:16.951Z,11.60
2018-06-28T03:10:16.232Z,11.57
2018-06-28T03:11:16.284Z,11.58
2018-06-28T03:12:16.556Z,11.64
2018-06-28T03:13:16.828Z,11.64
2018-06-28T03:14:17.103Z,11.63
2018-06-28T03:15:16.392Z,11.65
2018-06-28T03:16:16.940Z,11.65
2018-06-28T03:17:16.211Z,11.61
2018-06-28T03:18:16.481Z,11.65
2018-06-28T03:19:16.747Z,11.64
2018-06-28T03:20:17.026Z,11.65
2018-06-28T03:21:17.074Z,11.65
2018-06-28T03:22:16.343Z,11.65
2018-06-28T03:23:16.607Z,11.65
2018-06-28T03:24:16.865Z,11.64
2018-06-28T03:25:17.130Z,11.68
2018-06-28T03:26:16.396Z,11.72
2018-06-28T03:27:16.658Z,11.75
2018-06-28T03:28:16.920Z,11.80
2018-06-28T03:29:17.178Z,11.74
2018-06-28T03:30:16.448Z,11.70
2018-06-28T03:31:16.500Z,11.71
2018-06-28T03:32:16.792Z,11.72
2018-06-28T03:33:17.052Z,11.70
2018-06-28T03:34:16.325Z,11.65
2018-06-28T03:35:16.593Z,11.63
2018-06-28T03:36:16.850Z,11.63
2018-06-28T03:37:17.113Z,11.65
2018-06-28T03:38:16.371Z,11.65
2018-06-28T03:39:16.646Z,11.68
2018-06-28T03:40:16.908Z,11.68
2018-06-28T03:41:16.962Z,11.67
2018-06-28T03:42:16.222Z,11.64
2018-06-28T03:43:16.482Z,11.71
2018-06-28T03:44:16.775Z,11.71
2018-06-28T03:45:17.161Z,11.72
2018-06-28T03:46:16.508Z,11.74
2018-06-28T03:47:16.862Z,11.77
2018-06-28T03:48:17.572Z,11.77
2018-06-28T03:49:16.920Z,11.75
2018-06-28T03:50:16.311Z,11.78
2018-06-28T03:51:16.367Z,11.81
2018-06-28T03:52:16.790Z,11.85
2018-06-28T03:53:17.211Z,11.98
2018-06-28T03:54:16.620Z,11.98
2018-06-28T03:55:17.033Z,12.03
2018-06-28T03:56:16.456Z,12.15
2018-06-28T03:57:16.876Z,12.20
2018-06-28T03:58:16.341Z,12.26
2018-06-28T03:59:16.766Z,12.36
2018-06-28T04:09:16.968Z,12.77
2018-06-28T04:10:16.238Z,12.81
2018-06-28T04:11:16.281Z,12.87
2018-06-28T04:12:16.540Z,12.95
2018-06-28T04:13:16.802Z,12.94
2018-06-28T04:14:17.070Z,12.95
2018-06-28T04:15:16.337Z,12.96
2018-06-28T04:16:16.605Z,13.01
2018-06-28T04:17:16.869Z,13.11
2018-06-28T04:18:17.144Z,13.12
2018-06-28T04:19:16.436Z,13.15
2018-06-28T04:20:16.712Z,13.21
2018-06-28T04:21:16.765Z,13.23
2018-06-28T04:22:17.025Z,13.23
2018-06-28T04:23:16.293Z,13.25
2018-06-28T04:24:16.557Z,13.23
2018-06-28T04:25:16.845Z,13.25
2018-06-28T04:26:17.105Z,13.30
2018-06-28T04:27:16.367Z,13.34
2018-06-28T04:28:16.624Z,13.42
2018-06-28T04:29:16.884Z,13.42
2018-06-28T04:30:17.410Z,13.51
2018-06-28T04:31:16.195Z,13.53
2018-06-28T04:32:16.457Z,13.67
2018-06-28T04:33:16.753Z,13.73
2018-06-28T04:34:17.393Z,13.74
2018-06-28T04:35:16.662Z,13.78
2018-06-28T04:36:16.924Z,13.87
2018-06-28T04:37:17.192Z,13.91
2018-06-28T04:38:16.452Z,13.94
2018-06-28T04:39:16.710Z,14.04
2018-06-28T04:40:16.977Z,14.09
2018-06-28T04:41:17.017Z,14.22
2018-06-28T04:42:16.280Z,14.26
2018-06-28T04:43:16.540Z,14.30
2018-06-28T04:44:16.808Z,14.35
2018-06-28T04:45:17.086Z,14.43
2018-06-28T04:46:16.347Z,14.46
2018-06-28T04:47:16.606Z,14.47
2018-06-28T04:48:16.877Z,14.47
2018-06-28T04:49:17.146Z,14.53
2018-06-28T04:50:16.681Z,14.63
2018-06-28T04:51:16.492Z,14.70
2018-06-28T04:52:16.705Z,14.74
2018-06-28T04:53:16.973Z,14.83
2018-06-28T04:54:16.237Z,14.83
2018-06-28T04:55:16.505Z,14.87
2018-06-28T04:56:16.771Z,14.87
2018-06-28T04:57:17.034Z,14.90
2018-06-28T04:58:16.296Z,14.98
2018-06-28T04:59:16.559Z,15.02
2018-06-28T05:00:16.888Z,15.06
2018-06-28T05:01:16.962Z,15.04
2018-06-28T05:02:16.331Z,15.04
2018-06-28T05:03:16.591Z,15.04
2018-06-28T05:04:16.858Z,15.08
2018-06-28T05:05:17.130Z,15.11
2018-06-28T05:06:16.388Z,15.12
2018-06-28T05:07:16.648Z,15.15
2018-06-28T05:08:16.904Z,15.12
2018-06-28T05:09:17.163Z,15.08
2018-06-28T05:10:16.438Z,15.09
2018-06-28T05:11:16.481Z,15.11
2018-06-28T05:12:16.741Z,15.16
2018-06-28T05:13:16.996Z,15.21
2018-06-28T05:14:16.261Z,15.21
2018-06-28T05:15:16.537Z,15.12
2018-06-28T05:16:16.815Z,15.15
2018-06-28T05:17:17.340Z,15.16
2018-06-28T05:18:16.616Z,15.21
2018-06-28T05:19:16.883Z,15.19
2018-06-28T05:20:17.143Z,15.12
2018-06-28T05:21:17.206Z,15.16
2018-06-28T05:22:16.472Z,15.14
2018-06-28T05:23:16.743Z,15.18
2018-06-28T05:24:17.097Z,15.18
2018-06-28T05:25:16.363Z,15.21
2018-06-28T05:26:16.629Z,15.23
2018-06-28T05:27:16.899Z,15.23
2018-06-28T05:28:17.161Z,15.28
2018-06-28T05:29:16.503Z,15.31
2018-06-28T05:30:16.881Z,15.35
2018-06-28T05:31:16.954Z,15.41
2018-06-28T05:32:16.231Z,15.45
2018-06-28T05:33:16.509Z,15.53
2018-06-28T05:34:16.777Z,15.59
2018-06-28T05:35:17.055Z,15.64
2018-06-28T05:36:16.336Z,15.69
2018-06-28T05:37:16.619Z,15.76
2018-06-28T05:38:16.880Z,15.76
2018-06-28T05:39:17.150Z,15.80
2018-06-28T05:40:16.420Z,15.85
2018-06-28T05:41:16.468Z,15.90
2018-06-28T05:42:16.733Z,15.92
2018-06-28T05:43:17.005Z,16.00
2018-06-28T05:44:16.441Z,16.09
2018-06-28T05:45:16.693Z,16.18
2018-06-28T05:46:16.956Z,16.21
2018-06-28T05:47:16.223Z,16.21
2018-06-28T05:48:16.492Z,16.19
2018-06-28T05:49:16.765Z,16.27
2018-06-28T05:50:17.031Z,16.22
2018-06-28T05:51:17.084Z,16.19
2018-06-28T05:52:16.344Z,16.21
2018-06-28T05:53:16.922Z,16.17
2018-06-28T05:54:17.194Z,16.25
2018-06-28T05:55:16.463Z,16.36
2018-06-28T05:56:16.735Z,16.39
2018-06-28T05:57:16.972Z,16.32
2018-06-28T05:58:16.242Z,16.40
2018-06-28T05:59:16.502Z,16.45
2018-06-28T06:00:16.777Z,16.53
2018-06-28T06:01:16.883Z,16.52
2018-06-28T06:02:17.195Z,16.40
2018-06-28T06:03:16.469Z,16.46
2018-06-28T06:04:16.734Z,16.50
2018-06-28T06:05:17.011Z,16.57
2018-06-28T06:06:16.274Z,16.59
2018-06-28T06:07:16.541Z,16.63
2018-06-28T06:08:16.815Z,16.70
2018-06-28T06:09:18.105Z,16.73
2018-06-28T06:10:16.521Z,16.67
2018-06-28T06:11:16.549Z,16.60
2018-06-28T06:12:16.826Z,16.68
2018-06-28T06:13:17.106Z,16.81
2018-06-28T06:14:16.368Z,16.74
2018-06-28T06:15:16.643Z,16.76
2018-06-28T06:16:16.898Z,16.91
2018-06-28T06:17:17.158Z,16.91
2018-06-28T06:18:16.423Z,16.77
2018-06-28T06:19:16.707Z,16.77
2018-06-28T06:20:17.013Z,16.84
2018-06-28T06:21:17.014Z,16.81
2018-06-28T06:22:16.277Z,16.91
2018-06-28T06:23:16.553Z,16.97
2018-06-28T06:24:16.813Z,17.11
2018-06-28T06:25:17.090Z,17.13
2018-06-28T06:26:16.368Z,17.22
2018-06-28T06:27:16.631Z,17.21
2018-06-28T06:28:16.890Z,17.25
2018-06-28T06:29:17.153Z,17.36
2018-06-28T06:30:16.422Z,17.41
2018-06-28T06:31:16.466Z,17.41
2018-06-28T06:32:16.723Z,17.48
2018-06-28T06:33:16.976Z,17.53
2018-06-28T06:34:16.236Z,17.57
2018-06-28T06:35:16.498Z,17.62
2018-06-28T06:36:16.807Z,17.66
2018-06-28T06:37:17.151Z,17.72
2018-06-28T06:38:16.422Z,17.77
2018-06-28T06:39:16.691Z,17.77
2018-06-28T06:40:16.962Z,17.73
2018-06-28T06:41:17.019Z,17.72
2018-06-28T06:42:16.279Z,17.69
2018-06-28T06:43:16.545Z,17.72
2018-06-28T06:44:16.808Z,17.81
2018-06-28T06:45:17.075Z,17.90
2018-06-28T06:46:16.341Z,17.94
2018-06-28T06:47:16.601Z,18.07
2018-06-28T06:48:16.868Z,18.12
2018-06-28T06:49:17.134Z,18.18
2018-06-28T06:50:16.413Z,18.21
2018-06-28T06:51:16.449Z,18.19
2018-06-28T06:52:16.717Z,18.27
2018-06-28T06:53:16.992Z,18.32
2018-06-28T06:54:16.254Z,18.41
2018-06-28T06:55:16.509Z,18.45
2018-06-28T06:56:16.776Z,18.58
2018-06-28T06:57:17.054Z,18.63
2018-06-28T06:58:16.312Z,18.82
2018-06-28T06:59:16.584Z,18.95
2018-06-28T07:00:16.863Z,19.07
2018-06-28T07:01:16.929Z,19.32
2018-06-28T07:02:17.195Z,19.28
2018-06-28T07:03:16.454Z,19.30
2018-06-28T07:04:16.723Z,19.22
2018-06-28T07:05:16.999Z,19.05
2018-06-28T07:06:16.261Z,19.15
2018-06-28T07:07:16.525Z,19.30
2018-06-28T07:08:16.782Z,19.34
2018-06-28T07:09:17.053Z,19.34
2018-06-28T07:10:16.357Z,19.28
2018-06-28T07:11:16.374Z,19.24
2018-06-28T07:12:16.645Z,19.13
2018-06-28T07:13:16.929Z,19.22
2018-06-28T07:14:17.200Z,19.18
2018-06-28T07:15:16.465Z,19.17
2018-06-28T07:16:16.727Z,19.35
2018-06-28T07:17:16.996Z,19.42
2018-06-28T07:18:16.263Z,19.51
2018-06-28T07:19:16.517Z,19.48
2018-06-28T07:20:16.884Z,19.56
2018-06-28T07:21:16.836Z,19.48
2018-06-28T07:22:17.113Z,19.39
2018-06-28T07:23:16.377Z,19.51
2018-06-28T07:24:16.643Z,19.46
2018-06-28T07:25:16.900Z,19.58
2018-06-28T07:26:17.175Z,19.72
2018-06-28T07:27:16.436Z,19.80
2018-06-28T07:28:16.695Z,19.83
2018-06-28T07:29:16.979Z,19.89
2018-06-28T07:30:16.247Z,20.00
2018-06-28T07:31:16.306Z,20.07
2018-06-28T07:32:16.569Z,19.91
2018-06-28T07:33:16.825Z,19.97
2018-06-28T07:34:17.098Z,20.03
2018-06-28T07:35:16.363Z,20.08
2018-06-28T07:36:16.626Z,20.14
2018-06-28T07:37:16.891Z,20.44
2018-06-28T07:38:17.161Z,20.55
2018-06-28T07:39:16.425Z,20.80
2018-06-28T07:40:16.692Z,20.79
2018-06-28T07:41:16.747Z,20.99
2018-06-28T07:42:17.014Z,20.83
2018-06-28T07:43:16.275Z,20.79
2018-06-28T07:44:16.536Z,21.03
2018-06-28T07:45:17.061Z,20.96
2018-06-28T07:46:16.359Z,20.87
2018-06-28T07:47:16.636Z,20.93
2018-06-28T07:48:16.895Z,20.63
2018-06-28T07:49:17.159Z,20.60
2018-06-28T07:50:16.422Z,20.83
2018-06-28T07:51:16.468Z,20.78
2018-06-28T07:52:16.723Z,20.59
2018-06-28T07:53:16.987Z,20.69
2018-06-28T07:54:16.244Z,20.69
2018-06-28T07:55:16.535Z,20.69
2018-06-28T07:56:16.876Z,20.79
2018-06-28T07:57:17.135Z,21.10
2018-06-28T07:58:16.394Z,21.10
2018-06-28T07:59:16.659Z,21.11
2018-06-28T08:00:16.945Z,20.94
2018-06-28T08:01:17.011Z,21.07
2018-06-28T08:02:16.280Z,20.93
2018-06-28T08:03:16.557Z,21.07
2018-06-28T08:04:16.838Z,21.33
2018-06-28T08:05:17.117Z,21.15
2018-06-28T08:06:16.385Z,21.51
2018-06-28T08:07:16.641Z,21.65
2018-06-28T08:08:16.904Z,21.79
2018-06-28T08:09:17.171Z,21.69
2018-06-28T08:10:16.435Z,21.76
2018-06-28T08:11:16.494Z,21.79
2018-06-28T08:12:16.761Z,21.64
2018-06-28T08:13:17.027Z,21.68
2018-06-28T08:14:16.301Z,21.62
2018-06-28T08:15:16.573Z,21.75
2018-06-28T08:16:16.844Z,21.80
2018-06-28T08:17:17.113Z,21.62
2018-06-28T08:18:16.377Z,21.68
2018-06-28T08:19:16.650Z,21.57
2018-06-28T08:20:16.924Z,21.85
2018-06-28T08:21:16.958Z,21.73
2018-06-28T08:22:16.221Z,21.47
2018-06-28T08:23:16.485Z,21.33
2018-06-28T08:24:16.753Z,21.37
2018-06-28T08:25:17.009Z,21.18
2018-06-28T08:26:16.281Z,20.96
2018-06-28T08:27:16.542Z,20.99
2018-06-28T08:28:16.856Z,20.93
2018-06-28T08:29:17.180Z,21.03
2018-06-28T08:30:16.444Z,20.96
2018-06-28T08:31:16.519Z,21.02
2018-06-28T08:32:16.782Z,21.06
2018-06-28T08:33:17.059Z,21.27
2018-06-28T08:34:16.324Z,21.42
2018-06-28T08:35:16.592Z,21.57
2018-06-28T08:36:16.966Z,21.52
2018-06-28T08:37:16.692Z,21.68
2018-06-28T08:38:16.961Z,22.00
2018-06-28T08:39:16.221Z,22.09
2018-06-28T08:40:16.497Z,21.70
2018-06-28T08:41:16.542Z,21.82
2018-06-28T08:42:16.803Z,22.53
2018-06-28T08:43:17.109Z,22.81
2018-06-28T08:44:16.438Z,22.07
2018-06-28T08:45:16.704Z,22.21
2018-06-28T08:46:16.967Z,22.64
2018-06-28T08:47:16.230Z,22.61
2018-06-28T08:48:16.497Z,22.57
2018-06-28T08:49:17.031Z,22.06
2018-06-28T08:50:16.305Z,21.76
2018-06-28T08:51:16.351Z,21.92
2018-06-28T08:52:16.617Z,21.92
2018-06-28T08:53:16.879Z,22.06
2018-06-28T08:54:17.152Z,21.80
2018-06-28T08:55:16.408Z,21.97
2018-06-28T08:56:16.675Z,22.06
2018-06-28T08:57:16.941Z,21.92
2018-06-28T08:58:16.243Z,22.17
2018-06-28T08:59:16.626Z,22.10
2018-06-28T09:00:16.898Z,22.51
2018-06-28T09:01:16.950Z,22.47
2018-06-28T09:02:16.218Z,22.58
2018-06-28T09:03:16.482Z,22.44
2018-06-28T09:04:16.740Z,22.34
2018-06-28T09:05:17.021Z,22.00
2018-06-28T09:06:16.292Z,22.06
2018-06-28T09:07:16.554Z,22.57
2018-06-28T09:08:16.823Z,22.82
2018-06-28T09:09:17.083Z,22.93
2018-06-28T09:10:16.346Z,23.09
2018-06-28T09:11:16.409Z,22.98
2018-06-28T09:12:16.674Z,22.86
2018-06-28T09:13:16.938Z,22.92
2018-06-28T09:14:17.204Z,22.48
2018-06-28T09:15:16.543Z,22.48
2018-06-28T09:16:16.858Z,22.57
2018-06-28T09:17:17.121Z,22.43
2018-06-28T09:18:16.383Z,22.24
2018-06-28T09:19:16.646Z,22.05
2018-06-28T09:20:16.918Z,22.28
2018-06-28T09:21:16.966Z,22.35
2018-06-28T09:22:16.228Z,22.07
2018-06-28T09:23:16.503Z,22.17
2018-06-28T09:24:16.779Z,22.35
2018-06-28T09:25:17.046Z,22.21
2018-06-28T09:26:16.305Z,22.43
2018-06-28T09:27:16.570Z,22.51
2018-06-28T09:28:16.831Z,22.55
2018-06-28T09:29:17.400Z,22.38
2018-06-28T09:30:16.666Z,22.13
2018-06-28T09:31:16.717Z,22.30
2018-06-28T09:32:16.986Z,22.50
2018-06-28T09:33:16.246Z,22.16
2018-06-28T09:34:16.509Z,22.38
2018-06-28T09:35:16.773Z,22.45
2018-06-28T09:36:17.037Z,22.43
2018-06-28T09:37:16.302Z,22.38
2018-06-28T09:38:16.568Z,22.23
2018-06-28T09:39:16.836Z,22.50
2018-06-28T09:40:17.097Z,22.21
2018-06-28T09:41:17.178Z,22.26
2018-06-28T09:42:16.435Z,22.24
2018-06-28T09:43:16.701Z,22.24
2018-06-28T09:44:16.954Z,22.05
2018-06-28T09:45:16.214Z,22.15
2018-06-28T09:46:16.481Z,22.15
2018-06-28T09:47:16.746Z,22.05
2018-06-28T09:48:17.007Z,21.93
2018-06-28T09:49:16.266Z,21.99
2018-06-28T09:50:16.543Z,22.21
2018-06-28T09:51:16.582Z,22.21
2018-06-28T09:52:16.857Z,22.28
2018-06-28T09:53:17.118Z,22.21
2018-06-28T09:54:16.426Z,22.17
2018-06-28T09:55:16.689Z,21.93
2018-06-28T09:56:16.951Z,22.02
2018-06-28T09:57:16.232Z,22.00
2018-06-28T09:58:16.497Z,22.00
2018-06-28T09:59:16.760Z,22.02
2018-06-28T10:00:17.102Z,22.23
2018-06-28T10:01:17.081Z,21.95
2018-06-28T10:02:16.342Z,21.97
2018-06-28T10:03:16.616Z,22.12
2018-06-28T10:04:16.881Z,21.89
2018-06-28T10:05:17.146Z,21.89
2018-06-28T10:06:16.412Z,21.83
2018-06-28T10:07:16.679Z,21.92
2018-06-28T10:08:16.950Z,21.95
2018-06-28T10:09:16.208Z,22.09
2018-06-28T10:10:16.487Z,22.05
2018-06-28T10:11:16.543Z,22.00
2018-06-28T10:12:16.813Z,22.06
2018-06-28T10:13:17.119Z,22.13
2018-06-28T10:14:16.407Z,22.26
2018-06-28T10:15:16.684Z,22.35
2018-06-28T10:16:16.952Z,22.23
2018-06-28T10:17:16.221Z,22.31
2018-06-28T10:18:16.485Z,22.44
2018-06-28T10:19:16.746Z,22.38
2018-06-28T10:20:17.018Z,22.10
2018-06-28T10:21:17.066Z,22.28
2018-06-28T10:22:16.354Z,22.30
2018-06-28T10:23:16.625Z,22.35
2018-06-28T10:24:16.901Z,22.17
2018-06-28T10:25:17.190Z,21.99
2018-06-28T10:26:16.447Z,22.12
2018-06-28T10:27:16.710Z,22.24
2018-06-28T10:28:16.970Z,22.06
2018-06-28T10:29:16.244Z,22.16
2018-06-28T10:30:16.525Z,22.31
2018-06-28T10:31:16.576Z,22.37
2018-06-28T10:32:16.844Z,22.51
2018-06-28T10:33:17.103Z,22.48
2018-06-28T10:34:16.358Z,22.45
2018-06-28T10:35:16.616Z,22.54
2018-06-28T10:36:16.876Z,22.51
2018-06-28T10:37:17.128Z,22.45
2018-06-28T10:38:16.390Z,22.54
2018-06-28T10:39:16.659Z,22.50
2018-06-28T10:40:16.941Z,22.09
2018-06-28T10:41:16.958Z,22.24
2018-06-28T10:42:16.221Z,22.33
2018-06-28T10:43:16.483Z,22.51
2018-06-28T10:44:16.746Z,22.33
2018-06-28T10:45:17.015Z,22.37
2018-06-28T10:46:16.278Z,22.54
2018-06-28T10:47:16.530Z,22.41
2018-06-28T10:48:16.802Z,22.40
2018-06-28T10:49:17.074Z,22.50
2018-06-28T10:50:16.344Z,22.55
2018-06-28T10:51:16.402Z,22.62
2018-06-28T10:52:16.661Z,22.35
2018-06-28T10:53:16.930Z,22.40
2018-06-28T10:54:17.192Z,22.58
2018-06-28T10:55:16.448Z,22.57
2018-06-28T10:56:16.722Z,22.33
2018-06-28T10:57:16.994Z,22.41
2018-06-28T10:58:16.259Z,22.55
2018-06-28T10:59:16.518Z,22.88
2018-06-28T11:00:16.775Z,22.96
2018-06-28T11:01:16.857Z,22.88
2018-06-28T11:02:17.117Z,22.82
2018-06-28T11:03:16.373Z,22.91
2018-06-28T11:04:16.635Z,22.58
2018-06-28T11:05:17.022Z,23.09
2018-06-28T11:06:16.290Z,23.12
2018-06-28T11:07:16.546Z,23.25
2018-06-28T11:08:16.831Z,23.39
2018-06-28T11:09:17.120Z,23.44
2018-06-28T11:10:16.408Z,23.48
2018-06-28T11:11:16.521Z,23.43
2018-06-28T11:12:16.797Z,23.32
2018-06-28T11:13:17.071Z,23.44
2018-06-28T11:14:16.332Z,23.12
2018-06-28T11:15:16.603Z,23.43
2018-06-28T11:16:16.872Z,23.13
2018-06-28T11:17:17.133Z,23.34
2018-06-28T11:18:16.392Z,23.15
2018-06-28T11:19:16.652Z,23.40
2018-06-28T11:20:16.924Z,23.22
2018-06-28T11:21:16.966Z,23.53
2018-06-28T11:22:16.235Z,23.53
2018-06-28T11:23:16.507Z,24.09
2018-06-28T11:24:16.769Z,24.33
2018-06-28T11:25:17.043Z,23.71
2018-06-28T11:26:16.306Z,23.96
2018-06-28T11:27:16.582Z,23.96
2018-06-28T11:28:16.857Z,23.94
2018-06-28T11:29:17.120Z,24.17
2018-06-28T11:30:16.389Z,23.95
2018-06-28T11:31:16.458Z,24.11
2018-06-28T11:32:16.722Z,24.20
2018-06-28T11:33:16.976Z,24.26
2018-06-28T11:34:16.228Z,24.11
2018-06-28T11:35:16.507Z,23.98
2018-06-28T11:36:16.817Z,23.33
2018-06-28T11:37:17.179Z,23.51
2018-06-28T11:38:16.436Z,23.61
2018-06-28T11:39:16.693Z,23.60
2018-06-28T11:40:16.958Z,23.47
2018-06-28T11:41:16.990Z,23.41
2018-06-28T11:42:16.253Z,23.54
2018-06-28T11:43:16.516Z,23.41
2018-06-28T11:44:16.791Z,23.41
2018-06-28T11:45:17.049Z,23.39
2018-06-28T11:46:16.312Z,23.53
2018-06-28T11:47:16.580Z,23.22
2018-06-28T11:48:16.843Z,23.77
2018-06-28T11:49:17.102Z,23.75
2018-06-28T11:50:16.377Z,23.92
2018-06-28T11:51:16.428Z,24.08
2018-06-28T11:52:16.748Z,24.42
2018-06-28T11:53:17.156Z,24.49
2018-06-28T11:54:16.412Z,24.39
2018-06-28T11:55:16.686Z,24.19
2018-06-28T11:56:16.948Z,24.04
2018-06-28T11:57:16.205Z,24.42
2018-06-28T11:58:16.494Z,23.40
2018-06-28T11:59:16.767Z,23.65
2018-06-28T12:00:17.057Z,23.68
2018-06-28T12:01:17.084Z,23.88
2018-06-28T12:02:16.345Z,24.04
2018-06-28T12:03:16.607Z,23.95
2018-06-28T12:04:16.866Z,23.98
2018-06-28T12:05:17.197Z,23.89
2018-06-28T12:06:16.578Z,24.04
2018-06-28T12:07:16.840Z,23.87
2018-06-28T12:08:17.106Z,23.58
2018-06-28T12:09:16.375Z,23.57
2018-06-28T12:10:16.644Z,23.40
2018-06-28T12:11:16.697Z,23.65
2018-06-28T12:12:16.960Z,23.60
2018-06-28T12:13:16.235Z,23.57
2018-06-28T12:14:16.495Z,23.54
2018-06-28T12:15:16.762Z,24.01
2018-06-28T12:16:17.135Z,24.16
2018-06-28T12:17:16.396Z,23.99
2018-06-28T12:18:16.651Z,23.87
2018-06-28T12:19:16.906Z,24.19
2018-06-28T12:20:17.169Z,24.54
2018-06-28T12:21:16.237Z,24.57
2018-06-28T12:22:16.556Z,24.63
2018-06-28T12:23:16.869Z,24.20
2018-06-28T12:24:17.141Z,24.22
2018-06-28T12:25:16.411Z,23.99
2018-06-28T12:26:16.688Z,23.88
2018-06-28T12:27:16.950Z,23.73
2018-06-28T12:28:16.206Z,24.06
2018-06-28T12:29:16.472Z,24.63
2018-06-28T12:30:16.755Z,24.32
2018-06-28T12:31:16.772Z,24.33
2018-06-28T12:32:17.057Z,24.44
2018-06-28T12:33:16.324Z,24.63
2018-06-28T12:34:16.582Z,24.66
2018-06-28T12:35:16.842Z,24.04
2018-06-28T12:36:17.103Z,24.22
2018-06-28T12:37:16.383Z,24.02
2018-06-28T12:38:16.648Z,23.83
2018-06-28T12:39:16.966Z,24.02
2018-06-28T12:40:16.432Z,23.84
2018-06-28T12:41:16.504Z,23.58
2018-06-28T12:42:16.773Z,23.58
2018-06-28T12:43:17.048Z,23.84
2018-06-28T12:44:16.313Z,23.48
2018-06-28T12:45:16.592Z,23.57
2018-06-28T12:46:16.947Z,23.54
2018-06-28T12:47:16.337Z,23.67
2018-06-28T12:48:16.614Z,23.85
2018-06-28T12:49:16.880Z,23.80
2018-06-28T12:50:17.147Z,23.96
2018-06-28T12:51:17.192Z,23.48
2018-06-28T12:52:16.449Z,23.53
2018-06-28T12:53:16.709Z,23.69
2018-06-28T12:54:17.021Z,23.62
2018-06-28T12:55:16.318Z,23.36
2018-06-28T12:56:16.576Z,23.46
2018-06-28T12:57:16.846Z,23.58
2018-06-28T12:58:17.108Z,23.54
2018-06-28T12:59:16.375Z,23.85
2018-06-28T13:00:16.658Z,23.85
2018-06-28T13:01:16.690Z,23.89